Time;durP1;ratioP1;P1;durP2;ratioP2;P2;SDS_P1;SDS_P2;PMS_P1;PMS_P2;Temp;Humidity;BMP_temperature;BMP_pressure;BME280_temperature;BME280_humidity;BME280_pressure;Samples;Min_cycle;Max_cycle;Signal;HPM_P1;HPM_P2
2023/05/31 00:01:37;;;;;;;2.15;0.68;;;19.90;35.60;;;;;;2486008;55;20952;-67
2023/05/31 00:04:08;;;;;;;1.98;0.80;;;19.80;35.60;;;;;;2490187;55;21390;-69
2023/05/31 00:06:41;;;;;;;1.92;0.75;;;19.80;35.80;;;;;;2486781;55;21044;-67
2023/05/31 00:09:07;;;;;;;1.95;0.60;;;19.70;35.70;;;;;;2487822;55;20933;-67
2023/05/31 00:11:33;;;;;;;1.77;0.80;;;19.60;35.80;;;;;;2238523;57;21837;-67
2023/05/31 00:14:01;;;;;;;2.00;0.65;;;19.60;35.90;;;;;;2264245;56;21442;-67
2023/05/31 00:16:28;;;;;;;2.12;0.90;;;19.50;35.90;;;;;;2471309;55;20957;-67
2023/05/31 00:19:07;;;;;;;2.40;0.70;;;19.50;36.00;;;;;;2483801;55;21015;-67
2023/05/31 00:21:33;;;;;;;1.80;0.80;;;19.40;36.00;;;;;;2266123;56;20976;-67
2023/05/31 00:24:02;;;;;;;3.53;0.85;;;19.40;36.20;;;;;;2260178;57;20932;-70
2023/05/31 00:26:28;;;;;;;2.20;0.90;;;19.40;36.20;;;;;;2488806;55;20916;-68
2023/05/31 00:28:55;;;;;;;3.55;0.50;;;19.30;36.20;;;;;;2475436;55;21103;-67
2023/05/31 00:31:25;;;;;;;1.85;0.70;;;19.20;36.20;;;;;;2243343;57;21513;-69
2023/05/31 00:33:51;;;;;;;2.37;0.82;;;19.20;36.20;;;;;;2265268;56;21040;-70
2023/05/31 00:36:18;;;;;;;2.10;0.80;;;19.20;36.30;;;;;;2260126;57;20980;-67
2023/05/31 00:38:47;;;;;;;3.08;0.80;;;19.10;36.30;;;;;;2260430;57;20952;-68
2023/05/31 00:41:13;;;;;;;2.12;0.73;;;19.10;36.40;;;;;;2488766;55;20988;-70
2023/05/31 00:43:40;;;;;;;4.05;1.00;;;19.00;36.40;;;;;;2488903;55;21510;-67
2023/05/31 00:46:09;;;;;;;3.50;0.80;;;19.00;36.50;;;;;;2265553;56;21502;-71
2023/05/31 00:48:38;;;;;;;1.95;0.80;;;18.90;36.60;;;;;;2265727;56;21006;-68
2023/05/31 00:51:04;;;;;;;3.55;1.20;;;19.00;36.90;;;;;;2248475;56;21393;-67
2023/05/31 00:53:31;;;;;;;3.50;1.05;;;18.80;36.90;;;;;;2473520;55;21877;-67
2023/05/31 00:55:57;;;;;;;3.40;1.23;;;18.80;37.10;;;;;;2258825;56;21809;-67
2023/05/31 00:58:26;;;;;;;3.00;0.77;;;18.70;37.20;;;;;;2488338;55;20992;-67
2023/05/31 01:00:52;;;;;;;1.83;0.90;;;18.70;37.10;;;;;;2494862;55;20948;-66
2023/05/31 01:03:20;;;;;;;1.80;0.70;;;18.70;37.10;;;;;;2239126;56;20986;-71
2023/05/31 01:05:46;;;;;;;2.22;0.82;;;18.60;37.10;;;;;;2259358;56;21502;-67
2023/05/31 01:08:14;;;;;;;3.05;0.88;;;18.60;37.10;;;;;;2494747;55;21979;-69
2023/05/31 01:10:40;;;;;;;2.58;0.75;;;18.50;37.00;;;;;;2265777;56;20988;-68
2023/05/31 01:13:35;;;;;;;2.15;0.77;;;18.50;37.10;;;;;;2265371;56;21509;-68
2023/05/31 01:16:21;;;;;;;1.75;0.68;;;18.40;37.30;;;;;;2483768;55;20984;-70
2023/05/31 01:18:55;;;;;;;1.90;0.80;;;18.40;37.10;;;;;;2245229;56;20954;-68
2023/05/31 01:21:37;;;;;;;2.58;0.90;;;18.30;37.10;;;;;;2458992;55;21356;-66
2023/05/31 01:24:32;;;;;;;2.65;1.00;;;18.30;37.20;;;;;;2260843;56;21359;-69
2023/05/31 01:27:00;;;;;;;1.75;0.62;;;18.20;37.30;;;;;;2495178;55;21060;-70
2023/05/31 01:29:35;;;;;;;1.65;0.80;;;18.20;37.30;;;;;;2249005;56;20968;-67
2023/05/31 01:32:02;;;;;;;2.12;0.88;;;18.10;37.30;;;;;;2261912;56;20957;-66
2023/05/31 01:34:31;;;;;;;2.47;0.73;;;18.10;37.30;;;;;;2257559;56;21547;-67
2023/05/31 01:37:04;;;;;;;2.67;0.82;;;18.00;37.30;;;;;;2244198;56;20983;-69
2023/05/31 01:39:38;;;;;;;2.37;0.90;;;18.00;37.40;;;;;;2263229;56;20960;-67
2023/05/31 01:42:50;;;;;;;1.83;0.70;;;17.90;37.50;;;;;;2265146;56;21072;-69
2023/05/31 01:45:29;;;;;;;2.37;0.90;;;17.90;37.60;;;;;;2261547;56;20972;-67
2023/05/31 01:49:09;;;;;;;3.22;0.70;;;17.80;37.50;;;;;;2268281;56;21060;-66
2023/05/31 01:51:49;;;;;;;1.87;0.80;;;17.70;37.70;;;;;;2240838;56;21039;-66
2023/05/31 01:55:09;;;;;;;2.92;0.80;;;17.60;37.30;;;;;;2242770;56;21069;-70
2023/05/31 02:08:05;;;;;;;1.35;0.57;;;17.50;37.90;;;;;;2457178;55;20982;-66
2023/05/31 02:26:22;;;;;;;1.52;0.70;;;17.30;37.50;;;;;;2254273;55;20952;-67
2023/05/31 02:29:43;;;;;;;1.62;0.77;;;16.90;37.90;;;;;;2470678;55;20967;-69
2023/05/31 03:04:57;;;;;;;;;;;;;;;;;;;;;
2023/05/31 03:48:08;;;;;;;1.15;0.43;;;15.80;38.70;;;;;;2487157;55;21459;-68
2023/05/31 03:56:37;;;;;;;2.20;1.05;;;15.70;39.20;;;;;;2272603;56;21790;-66
2023/05/31 04:42:50;;;;;;;4.25;0.90;;;15.40;40.00;;;;;;2431855;55;21009;-69
2023/05/31 04:46:17;;;;;;;1.65;0.52;;;15.40;40.70;;;;;;2316311;59;21123;-69
2023/05/31 04:53:37;;;;;;;2.00;0.80;;;15.40;41.10;;;;;;2368741;57;21083;-66
2023/05/31 05:46:03;;;;;;;1.83;0.60;;;15.80;41.30;;;;;;2344462;58;21058;-67
2023/05/31 05:49:58;;;;;;;2.62;0.80;;;15.80;41.70;;;;;;2518262;53;29055;-67
2023/05/31 05:53:08;;;;;;;3.53;0.70;;;16.30;42.00;;;;;;2506655;54;21933;-67
2023/05/31 05:56:21;;;;;;;;;;;;;;;;;;;;;
2023/05/31 05:59:20;;;;;;;2.70;1.10;;;16.30;42.10;;;;;;2533187;54;21113;-68
2023/05/31 06:04:10;;;;;;;2.17;0.70;;;16.40;42.20;;;;;;2519413;53;21030;-69
2023/05/31 06:08:09;;;;;;;2.95;1.00;;;16.50;42.40;;;;;;2305067;55;21065;-67
2023/05/31 06:10:59;;;;;;;;;;;16.70;42.80;;;;;;2517479;54;20989;-72
2023/05/31 06:14:16;;;;;;;3.45;0.90;;;16.70;42.40;;;;;;2528758;54;20369;-70
2023/05/31 06:17:27;;;;;;;2.08;0.90;;;16.80;42.80;;;;;;2309395;55;21057;-70
2023/05/31 06:22:17;;;;;;;4.25;1.10;;;16.80;42.90;;;;;;2501087;53;21060;-68
2023/05/31 06:24:53;;;;;;;2.10;0.80;;;17.00;43.00;;;;;;2536743;53;21040;-69
2023/05/31 06:27:38;;;;;;;3.85;1.30;;;17.10;42.80;;;;;;2507798;54;20939;-67
2023/05/31 06:30:18;;;;;;;3.50;1.40;;;17.20;43.00;;;;;;2547570;53;20955;-68
2023/05/31 06:33:05;;;;;;;6.80;1.00;;;17.20;43.00;;;;;;2327644;53;21064;-68
2023/05/31 06:35:39;;;;;;;3.75;1.00;;;17.30;43.10;;;;;;2566199;53;21040;-68
2023/05/31 06:38:16;;;;;;;6.45;1.27;;;17.40;43.10;;;;;;2551297;53;21007;-68
2023/05/31 06:40:44;;;;;;;2.53;1.00;;;17.50;43.30;;;;;;2553370;54;21727;-68
2023/05/31 06:43:12;;;;;;;2.70;1.05;;;17.60;43.40;;;;;;2552980;54;21010;-69
2023/05/31 06:45:41;;;;;;;3.22;0.77;;;17.70;43.50;;;;;;2291448;55;21799;-68
2023/05/31 06:48:11;;;;;;;3.87;1.23;;;17.80;43.50;;;;;;2335717;53;20933;-68
2023/05/31 06:50:38;;;;;;;3.37;1.27;;;17.90;43.60;;;;;;2555510;53;20991;-71
2023/05/31 06:53:04;;;;;;;3.65;1.00;;;18.00;43.80;;;;;;2313043;53;21067;-68
2023/05/31 06:55:31;;;;;;;2.80;1.30;;;18.10;43.90;;;;;;2313627;54;20987;-69
2023/05/31 06:57:58;;;;;;;3.92;1.12;;;18.20;44.10;;;;;;2555228;53;20951;-71
2023/05/31 07:00:26;;;;;;;3.50;1.30;;;18.30;44.30;;;;;;2554223;53;20935;-68
2023/05/31 07:02:52;;;;;;;2.80;0.90;;;18.40;44.30;;;;;;2314007;54;21917;-69
2023/05/31 07:05:18;;;;;;;4.55;1.10;;;18.50;44.10;;;;;;2314274;54;21018;-68
2023/05/31 07:07:47;;;;;;;3.08;1.00;;;18.60;44.20;;;;;;2312649;54;20947;-68
2023/05/31 07:10:14;;;;;;;2.70;1.05;;;18.70;44.30;;;;;;2554523;53;20978;-68
2023/05/31 07:12:41;;;;;;;4.20;1.10;;;18.90;44.30;;;;;;2530996;54;20950;-70
2023/05/31 07:15:10;;;;;;;3.17;1.00;;;19.00;44.30;;;;;;2314254;54;21396;-70
2023/05/31 07:17:36;;;;;;;3.22;1.15;;;19.10;44.20;;;;;;2554012;53;21384;-67
2023/05/31 07:20:04;;;;;;;4.72;1.00;;;19.20;44.20;;;;;;2554425;54;20963;-69
2023/05/31 07:22:31;;;;;;;2.97;0.95;;;19.30;44.20;;;;;;2553665;53;20927;-71
2023/05/31 07:24:58;;;;;;;3.22;1.12;;;19.50;44.10;;;;;;2554123;53;20919;-68
2023/05/31 07:27:24;;;;;;;3.45;1.15;;;19.60;44.40;;;;;;2314319;54;20951;-72
2023/05/31 07:29:51;;;;;;;3.30;1.33;;;19.70;44.40;;;;;;2316333;54;21001;-68
2023/05/31 07:32:18;;;;;;;2.55;1.05;;;19.80;44.30;;;;;;2315212;53;21146;-70
2023/05/31 07:34:45;;;;;;;3.47;1.00;;;19.90;44.20;;;;;;2550273;53;20951;-68
2023/05/31 07:37:11;;;;;;;2.58;1.10;;;20.10;44.30;;;;;;2316004;54;21050;-68
2023/05/31 07:39:38;;;;;;;1.98;0.85;;;20.20;44.40;;;;;;2313860;54;20979;-72
2023/05/31 07:42:07;;;;;;;3.58;1.10;;;20.30;44.40;;;;;;2311849;53;20959;-68
2023/05/31 07:44:34;;;;;;;3.25;1.27;;;20.40;44.40;;;;;;2314395;54;21006;-69
2023/05/31 07:47:00;;;;;;;2.92;1.00;;;20.50;44.40;;;;;;2313249;53;20992;-68
2023/05/31 07:49:26;;;;;;;4.82;1.30;;;20.70;44.50;;;;;;2552797;54;20931;-71
2023/05/31 07:51:56;;;;;;;3.72;1.10;;;20.80;44.50;;;;;;2314187;54;20931;-72
2023/05/31 07:54:22;;;;;;;3.58;1.20;;;20.90;44.30;;;;;;2314869;54;21010;-72
2023/05/31 07:56:48;;;;;;;3.33;1.10;;;21.00;44.50;;;;;;2552783;53;20939;-68
2023/05/31 07:59:16;;;;;;;2.17;0.77;;;21.20;44.50;;;;;;2554573;54;20935;-68
2023/05/31 08:01:43;;;;;;;2.83;1.12;;;21.30;44.30;;;;;;2313286;54;21298;-69
2023/05/31 08:04:12;;;;;;;2.50;1.00;;;21.40;44.00;;;;;;2314544;54;20998;-69
2023/05/31 08:06:39;;;;;;;3.17;1.15;;;21.50;44.10;;;;;;2315721;54;20982;-71
2023/05/31 08:09:21;;;;;;;3.47;1.30;;;21.60;44.00;;;;;;2530918;54;21686;-69
2023/05/31 08:11:55;;;;;;;2.28;1.05;;;21.60;43.80;;;;;;2310759;54;21332;-68
2023/05/31 08:14:52;;;;;;;3.58;1.02;;;21.90;43.80;;;;;;2316501;54;20967;-69
2023/05/31 08:18:01;;;;;;;5.00;0.98;;;22.00;43.50;;;;;;2553122;53;21431;-70
2023/05/31 08:22:08;;;;;;;3.03;1.20;;;22.20;43.60;;;;;;2480591;54;21035;-69
2023/05/31 08:25:18;;;;;;;3.13;1.10;;;22.30;43.40;;;;;;2538439;54;21477;-72
2023/05/31 08:28:08;;;;;;;2.47;0.88;;;22.40;43.40;;;;;;2546147;54;21099;-71
2023/05/31 08:38:04;;;;;;;2.78;0.90;;;22.80;43.50;;;;;;2307550;55;21594;-72
2023/05/31 08:47:41;;;;;;;2.45;1.20;;;23.10;42.90;;;;;;2513465;54;20949;-70
2023/05/31 10:05:57;;;;;;;;;;;;;;;;;;;;;
2023/05/31 10:21:25;;;;;;;2.70;1.00;;;25.70;40.90;;;;;;2445518;54;20965;-71
2023/05/31 10:26:29;;;;;;;;;;;;;;;;;;;;;
2023/05/31 11:00:18;;;;;;;2.90;0.93;;;26.60;39.40;;;;;;2440119;56;26555;-71
2023/05/31 11:03:31;;;;;;;2.30;0.88;;;27.70;38.20;;;;;;2440752;56;21791;-73
2023/05/31 11:07:25;;;;;;;2.30;1.00;;;27.80;38.10;;;;;;2406401;56;21570;-73
2023/05/31 11:10:55;;;;;;;2.10;0.95;;;27.90;37.70;;;;;;2363980;56;21055;-74
2023/05/31 11:14:25;;;;;;;2.08;1.00;;;28.00;37.20;;;;;;2410714;56;21964;-74
2023/05/31 11:19:13;;;;;;;;;;;;;;;;;;;;;
2023/05/31 11:22:25;;;;;;;;;;;;;;;;;;;;;
2023/05/31 11:26:04;;;;;;;2.78;0.80;;;28.30;37.10;;;;;;2410268;55;21034;-70
2023/05/31 11:42:10;;;;;;;2.03;0.90;;;28.60;36.30;;;;;;2444209;55;21030;-70
2023/05/31 11:45:38;;;;;;;2.12;0.80;;;28.80;36.20;;;;;;2456856;55;21012;-70
2023/05/31 11:49:03;;;;;;;1.92;0.70;;;28.90;34.90;;;;;;2483147;55;21888;-73
2023/05/31 11:54:31;;;;;;;2.50;0.90;;;28.90;35.00;;;;;;2485233;55;21170;-70
2023/05/31 12:02:21;;;;;;;;;;;;;;;;;;;;;
2023/05/31 12:06:45;;;;;;;2.28;1.00;;;29.20;35.20;;;;;;2467834;55;21902;-69
2023/05/31 12:15:08;;;;;;;;;;;;;;;;;;;;;
2023/05/31 12:19:05;;;;;;;2.70;1.12;;;29.40;34.10;;;;;;2375839;55;21067;-71
2023/05/31 12:22:32;;;;;;;;;;;;;;;;;;;;;
2023/05/31 12:42:00;;;;;;;2.62;0.85;;;29.60;32.80;;;;;;2165725;58;21046;-70
2023/05/31 13:10:50;;;;;;;2.95;0.88;;;29.80;33.30;;;;;;2468562;55;21068;-71
2023/05/31 13:16:37;;;;;;;2.75;0.82;;;30.30;33.40;;;;;;2445602;54;30716;-70
2023/05/31 13:25:15;;;;;;;;;;;;;;;;;;;;;
2023/05/31 13:31:42;;;;;;;1.52;0.70;;;30.50;31.60;;;;;;2253089;56;21068;-69
2023/05/31 13:35:09;;;;;;;3.00;1.00;;;30.50;31.90;;;;;;2462987;55;21980;-70
2023/05/31 13:39:44;;;;;;;2.67;0.90;;;30.50;31.00;;;;;;2474296;54;21097;-73
2023/05/31 13:42:36;;;;;;;2.50;0.90;;;30.60;31.20;;;;;;2475038;55;21147;-69
2023/05/31 13:45:32;;;;;;;;;;;;;;;;;;;;;
2023/05/31 13:49:25;;;;;;;;;;;;;;;;;;;;;
2023/05/31 13:53:10;;;;;;;2.90;0.85;;;30.70;31.10;;;;;;2483838;55;21569;-70
2023/05/31 13:56:36;;;;;;;3.00;0.90;;;30.80;30.90;;;;;;2505630;55;20980;-71
2023/05/31 14:00:45;;;;;;;3.35;0.80;;;30.80;31.20;;;;;;2284052;56;20978;-72
2023/05/31 14:05:07;;;;;;;2.77;0.77;;;30.90;31.20;;;;;;2288890;55;21886;-70
2023/05/31 14:11:51;;;;;;;2.58;0.90;;;31.10;30.60;;;;;;2481332;55;20978;-71
2023/05/31 14:15:47;;;;;;;2.33;0.88;;;31.20;30.70;;;;;;2484569;54;20946;-70
2023/05/31 14:18:37;;;;;;;2.40;0.88;;;31.20;30.30;;;;;;2465284;55;21007;-70
2023/05/31 14:21:37;;;;;;;2.42;0.95;;;31.30;29.90;;;;;;2379537;57;21169;-69
2023/05/31 14:29:35;;;;;;;;;;;;;;;;;;;;;
2023/05/31 14:40:02;;;;;;;2.12;0.70;;;31.40;30.00;;;;;;2250575;55;20964;-70
2023/05/31 14:43:05;;;;;;;2.62;1.00;;;31.50;30.70;;;;;;2478136;55;21015;-71
2023/05/31 14:46:10;;;;;;;2.62;0.90;;;31.50;29.30;;;;;;2484019;55;20975;-71
2023/05/31 14:49:13;;;;;;;2.83;0.90;;;31.50;29.30;;;;;;2458474;54;22190;-72
2023/05/31 14:55:47;;;;;;;3.28;1.05;;;31.50;29.50;;;;;;2445507;55;21140;-73
2023/05/31 14:59:11;;;;;;;2.42;1.00;;;31.50;29.30;;;;;;2458693;54;21264;-72
2023/05/31 15:01:50;;;;;;;2.60;0.95;;;31.50;29.10;;;;;;2311469;55;21367;-70
2023/05/31 15:05:58;;;;;;;1.80;0.70;;;31.60;29.00;;;;;;2290668;55;20969;-73
2023/05/31 15:09:05;;;;;;;;;;;;;;;;;;;;;
2023/05/31 15:55:02;;;;;;;2.00;0.88;;;31.30;29.30;;;;;;2267015;55;28999;-70
2023/05/31 16:02:07;;;;;;;2.40;0.80;;;31.10;28.30;;;;;;2496428;54;21484;-70
2023/05/31 16:06:58;;;;;;;;;;;;;;;;;;;;;
2023/05/31 16:20:33;;;;;;;;;;;;;;;;;;;;;
2023/05/31 16:40:30;;;;;;;;;;;;;;;;;;;;;
2023/05/31 16:43:15;;;;;;;1.60;0.60;;;30.70;28.20;;;;;;2432689;55;21027;-70
2023/05/31 16:47:46;;;;;;;2.37;0.70;;;30.70;28.40;;;;;;2401143;56;21013;-71
2023/05/31 16:52:04;;;;;;;2.25;0.70;;;30.60;28.10;;;;;;2234180;56;21009;-69
2023/05/31 16:57:14;;;;;;;1.52;0.60;;;30.60;28.20;;;;;;2463038;55;21193;-70
2023/05/31 17:00:27;;;;;;;2.58;1.10;;;30.60;28.30;;;;;;2237793;56;20980;-72
2023/05/31 17:03:44;;;;;;;;;;;;;;;;;;;;;
2023/05/31 17:20:37;;;;;;;;;;;;;;;;;;;;;
2023/05/31 17:23:32;;;;;;;2.80;0.68;;;30.50;28.20;;;;;;2406153;56;20999;-74
2023/05/31 17:31:12;;;;;;;2.28;0.82;;;30.50;28.20;;;;;;2225979;56;20958;-70
2023/05/31 17:35:06;;;;;;;;;;;;;;;;;;;;;
2023/05/31 17:38:19;;;;;;;3.87;0.75;;;30.40;28.10;;;;;;2456169;55;20941;-73
2023/05/31 17:41:25;;;;;;;2.05;0.80;;;30.40;27.80;;;;;;2435943;55;21545;-69
2023/05/31 17:47:52;;;;;;;1.33;0.45;;;30.50;28.20;;;;;;2440869;55;22040;-70
2023/05/31 17:50:52;;;;;;;2.45;0.80;;;30.70;28.60;;;;;;2446202;55;21878;-70
2023/05/31 18:07:10;;;;;;;2.65;0.85;;;30.70;28.40;;;;;;2192941;57;21085;-73
2023/05/31 18:37:06;;;;;;;1.67;0.50;;;32.90;26.50;;;;;;2473210;54;21089;-72
2023/05/31 19:48:06;;;;;;;1.40;0.25;;;30.30;27.20;;;;;;2487364;55;21039;-72
2023/05/31 20:33:30;;;;;;;;;;;;;;;;;;;;;
2023/05/31 20:48:28;;;;;;;;;;;;;;;;;;;;;
2023/05/31 20:51:12;;;;;;;1.35;0.40;;;24.30;29.30;;;;;;2192380;58;21080;-69
2023/05/31 20:54:07;;;;;;;1.98;0.80;;;24.00;29.30;;;;;;2375471;57;21065;-70
2023/05/31 20:57:05;;;;;;;;;;;;;;;;;;;;;
2023/05/31 21:00:27;;;;;;;2.25;0.70;;;23.70;29.70;;;;;;2278067;60;21098;-69
2023/05/31 21:03:24;;;;;;;1.77;0.80;;;23.60;29.80;;;;;;2399011;57;21502;-71
2023/05/31 21:06:16;;;;;;;1.33;0.50;;;23.50;29.90;;;;;;2399562;57;21030;-67
2023/05/31 21:09:28;;;;;;;0.95;0.50;;;23.40;30.00;;;;;;2354329;57;21086;-71
2023/05/31 21:12:16;;;;;;;1.70;0.65;;;23.20;30.00;;;;;;2393485;57;21582;-68
2023/05/31 21:15:01;;;;;;;3.62;0.68;;;23.10;30.00;;;;;;2160494;58;21598;-68
2023/05/31 21:17:40;;;;;;;1.48;0.60;;;23.00;30.20;;;;;;2191645;57;21012;-71
2023/05/31 21:20:16;;;;;;;2.00;0.60;;;22.90;30.10;;;;;;2402772;57;21071;-68
2023/05/31 21:22:47;;;;;;;1.87;0.50;;;22.80;30.20;;;;;;2182266;58;20958;-68
2023/05/31 21:25:22;;;;;;;2.20;0.80;;;22.70;30.30;;;;;;2185702;58;21047;-68
2023/05/31 21:27:50;;;;;;;1.67;0.60;;;22.60;30.40;;;;;;2187051;58;20996;-68
2023/05/31 21:30:19;;;;;;;1.85;0.60;;;22.50;30.40;;;;;;2182376;57;20935;-71
2023/05/31 21:32:52;;;;;;;1.90;0.70;;;22.40;30.60;;;;;;2398910;57;21238;-69
2023/05/31 21:35:19;;;;;;;1.92;0.62;;;22.40;30.80;;;;;;2185960;57;21445;-68
2023/05/31 21:37:45;;;;;;;2.20;0.70;;;22.20;30.70;;;;;;2205268;57;21101;-70
2023/05/31 21:40:12;;;;;;;1.87;0.70;;;22.20;30.80;;;;;;2427751;57;21018;-70
2023/05/31 21:42:40;;;;;;;2.60;0.80;;;22.10;30.90;;;;;;2431313;56;21054;-68
2023/05/31 21:45:07;;;;;;;1.23;0.55;;;22.00;30.90;;;;;;2209646;57;21005;-67
2023/05/31 21:47:34;;;;;;;2.03;0.70;;;21.90;31.60;;;;;;2209185;57;21001;-70
2023/05/31 21:50:01;;;;;;;1.95;0.65;;;21.80;31.00;;;;;;2425846;57;21025;-68
2023/05/31 21:52:31;;;;;;;2.05;0.73;;;21.80;31.10;;;;;;2209872;57;20954;-70
2023/05/31 21:54:58;;;;;;;2.60;0.70;;;21.70;31.20;;;;;;2423542;57;20969;-67
2023/05/31 21:57:25;;;;;;;2.10;0.80;;;21.60;31.40;;;;;;2210109;57;20986;-68
2023/05/31 21:59:52;;;;;;;1.65;0.60;;;21.50;31.50;;;;;;2208804;57;20974;-68
2023/05/31 22:02:18;;;;;;;2.05;0.80;;;21.50;31.50;;;;;;2211229;57;21676;-67
2023/05/31 22:04:45;;;;;;;1.85;0.75;;;21.40;31.50;;;;;;2207090;57;20958;-67
2023/05/31 22:07:11;;;;;;;2.72;0.60;;;21.30;31.60;;;;;;2206179;57;20962;-69
2023/05/31 22:09:37;;;;;;;2.22;0.60;;;21.30;31.80;;;;;;2205651;57;21421;-67
2023/05/31 22:12:05;;;;;;;2.97;0.70;;;21.20;31.80;;;;;;2206002;57;21520;-67
2023/05/31 22:14:33;;;;;;;1.87;0.70;;;21.20;31.90;;;;;;2423378;57;20998;-67
2023/05/31 22:17:01;;;;;;;2.28;0.77;;;21.10;32.00;;;;;;2206130;57;21022;-67
2023/05/31 22:19:28;;;;;;;1.92;0.70;;;21.00;32.10;;;;;;2206050;57;21058;-69
2023/05/31 22:21:55;;;;;;;1.70;0.57;;;21.00;32.20;;;;;;2423640;57;21034;-68
2023/05/31 22:24:25;;;;;;;2.92;1.20;;;20.90;32.30;;;;;;2206610;57;20974;-67
2023/05/31 22:26:51;;;;;;;2.15;0.80;;;20.80;32.30;;;;;;2422243;57;21444;-67
2023/05/31 22:29:17;;;;;;;1.85;0.68;;;20.80;32.50;;;;;;2206237;57;21046;-69
2023/05/31 22:31:45;;;;;;;3.22;0.73;;;20.70;32.60;;;;;;2212429;57;20952;-67
2023/05/31 22:34:14;;;;;;;2.35;1.05;;;20.70;32.80;;;;;;2206339;57;20987;-69
2023/05/31 22:36:44;;;;;;;1.75;0.70;;;20.70;32.90;;;;;;2425436;56;20872;-69
2023/05/31 22:39:12;;;;;;;2.23;0.70;;;20.60;32.90;;;;;;2208236;57;20948;-67
2023/05/31 22:41:38;;;;;;;2.00;0.73;;;20.50;33.00;;;;;;2423475;57;21046;-67
2023/05/31 22:44:06;;;;;;;1.85;0.70;;;20.50;33.20;;;;;;2423992;57;21707;-68
2023/05/31 22:46:35;;;;;;;2.17;0.80;;;20.40;33.20;;;;;;2206422;57;20978;-67
2023/05/31 22:49:02;;;;;;;1.92;0.90;;;20.40;33.50;;;;;;2423879;57;20986;-71
2023/05/31 22:51:32;;;;;;;1.70;0.55;;;20.30;33.50;;;;;;2205977;57;20970;-68
2023/05/31 22:53:59;;;;;;;2.03;0.65;;;20.30;33.60;;;;;;2206367;57;21026;-67
2023/05/31 22:56:35;;;;;;;2.03;0.77;;;20.20;33.60;;;;;;2424473;57;20974;-67
2023/05/31 22:59:02;;;;;;;2.37;0.90;;;20.20;34.00;;;;;;2197311;57;20970;-68
2023/05/31 23:01:28;;;;;;;1.83;0.70;;;20.20;33.80;;;;;;2206474;57;21069;-68
2023/05/31 23:17:48;;;;;;;1.65;0.75;;;19.90;34.50;;;;;;2413345;56;21550;-67
2023/05/31 23:20:14;;;;;;;2.00;0.80;;;19.80;34.10;;;;;;2205811;57;20957;-70
2023/05/31 23:22:41;;;;;;;2.37;0.95;;;19.80;34.30;;;;;;2206059;57;21006;-71
2023/05/31 23:25:11;;;;;;;3.08;0.90;;;19.70;34.50;;;;;;2203258;57;20934;-69
2023/05/31 23:27:37;;;;;;;1.90;0.75;;;19.70;34.60;;;;;;2201159;57;20950;-70
2023/05/31 23:30:10;;;;;;;3.00;1.05;;;19.60;34.70;;;;;;2205858;57;20990;-66
2023/05/31 23:32:37;;;;;;;2.60;0.77;;;19.60;34.80;;;;;;2423087;57;20954;-67
2023/05/31 23:35:04;;;;;;;1.55;0.52;;;19.60;34.90;;;;;;2205891;57;20985;-70
2023/05/31 23:37:31;;;;;;;3.72;1.00;;;19.50;34.90;;;;;;2210687;57;21037;-67
2023/05/31 23:39:57;;;;;;;2.17;0.80;;;19.50;35.10;;;;;;2424672;56;21042;-67
2023/05/31 23:43:16;;;;;;;2.45;0.80;;;19.40;35.10;;;;;;2205954;57;21554;-70
2023/05/31 23:45:43;;;;;;;3.50;0.90;;;19.40;35.60;;;;;;2205511;57;21156;-67
2023/05/31 23:48:10;;;;;;;2.45;0.90;;;19.30;35.10;;;;;;2397297;57;21285;-67
2023/05/31 23:50:37;;;;;;;3.95;1.12;;;19.30;35.30;;;;;;2398216;57;21045;-67
2023/05/31 23:53:04;;;;;;;2.03;0.82;;;19.20;35.50;;;;;;2185322;57;21379;-66
2023/05/31 23:55:30;;;;;;;2.50;1.00;;;19.20;35.60;;;;;;2185019;57;21048;-67
2023/05/31 23:57:56;;;;;;;4.65;1.37;;;19.20;35.70;;;;;;2413171;56;21014;-70
